Keating Summit, Pennsylvania
Current Conditions -  °F | °C
As of 9:53 AM on Wednesday 26 Nov 2014 (Local Time) from KBFD Reporting Station
Overcast Overcast  
Wind Chill: 26°   Ceiling: 1300
Heat Index: 31°   Visibility: 10mi
Dew Point: 24°   Wind: 5mph
Humidity: 76%   Direction: 70°ENE
Pressure: 30.07"   Gusts: NA
Location:  41.791°N, 78.5153°W
Report Text: KBFD 261453Z AUTO 07004KT 10SM OVC013 M01/M04 A3007 RMK AO2 PRESRR SLP202 T10061044 53001
Loading
Personal Weather Stations






























Interactive Weather Map New forecast layout! Learn more

10-Day Weather Forecast

Advertisements
Track Severe Weather on mobile